Home > Products > Valid Products > TAF

000
FTUS46 KPQR 160251 AAA
TAFPDX
TAF AMD
KPDX 160251Z 1603/1624 22008KT P6SM SCT050 BKN080
     FM160400 20006KT 6SM -DZ SCT025 OVC040
     FM160700 19006KT 6SM -RADZ BKN025 OVC035=



000
FTUS46 KPQR 152334
TAFTTD
TAF
KTTD 152334Z 1600/1624 20005KT P6SM SCT040 BKN070
     FM160100 21006KT P6SM BKN045 OVC070
     FM160400 21004KT 6SM -DZ SCT025 OVC040
     FM160800 19003KT 6SM -RADZ BKN025 OVC035
     FM161900 22008KT 6SM -RADZ BKN025 OVC035=



000
FTUS46 KPQR 152334
TAFHIO
TAF
KHIO 152334Z 1600/1624 19007KT P6SM BKN045 OVC070
     FM160400 19003KT 6SM -DZ SCT025 OVC045
     FM160700 20003KT 6SM -RADZ BKN025 OVC035=



000
FTUS46 KPQR 152334
TAFEUG
TAF
KEUG 152334Z 1600/1624 35009KT P6SM FEW040 BKN060
     FM160300 27007KT P6SM SCT045 BKN060
     FM160600 21003KT P6SM -RA SCT025 OVC045
     FM160900 19004KT 6SM -RA BKN025 OVC035
     FM162000 22006KT P6SM SCT025 BKN040=



000
FTUS46 KPQR 152334
TAFSLE
TAF
KSLE 152334Z 1600/1624 VRB03KT P6SM FEW040 BKN060
     FM160100 21006KT P6SM BKN045 OVC070
     FM160400 19003KT 6SM -DZ SCT025 OVC045
     FM160800 17004KT 6SM -RADZ BKN025 OVC035
     FM162100 19007KT P6SM -RA SCT025 OVC035=



000
FTUS46 KPQR 152334
TAFPDX
TAF
KPDX 152334Z 1600/1624 22008KT P6SM BKN045 OVC070
     FM160400 20006KT 6SM -DZ SCT025 OVC040
     FM160700 19006KT 6SM -RADZ BKN025 OVC035=



000
FTUS46 KPQR 152334
TAFAST
TAF
KAST 152334Z 1600/1624 23010KT 6SM -DZ SCT025 OVC035
      TEMPO 1600/1603 BKN025
     FM160300 21006KT 5SM -RADZ BR BKN025 OVC035
     FM160600 21006KT 4SM -RADZ BR SCT007 BKN015 OVC025
     FM161800 21012KT 6SM -RADZ BR SCT015 OVC025=



000
FTUS46 KPQR 152334
TAFONP
TAF
KONP 152334Z 1600/1624 28006KT P6SM SCT025 BKN040
      TEMPO 1600/1603 -DZ
     FM160300 24009KT 6SM -RADZ BR BKN025 OVC040
     FM160600 22007KT 3SM -RADZ BR BKN020 OVC030
     FM162000 21008KT 6SM -RA SCT020 BKN035=



000
FTUS46 KPQR 152111 AAA
TAFEUG
TAF AMD
KEUG 152111Z 1521/1618 35009KT P6SM FEW040 BKN060
     FM160000 22007KT P6SM SCT045 BKN060
     FM160500 20003KT P6SM -RA SCT025 OVC045
     FM160800 19004KT 6SM -RA BKN025 OVC035=



000
FTUS46 KPQR 152110 AAA
TAFSLE
TAF AMD
KSLE 152110Z 1521/1618 21006KT P6SM FEW040 BKN060
     FM160100 20007KT P6SM FEW025 BKN045 OVC070
     FM160400 19003KT P6SM -RA SCT025 OVC045
     FM160800 16004KT 6SM -RA BKN025 OVC035=



000
FTUS46 KPQR 152109 AAA
TAFTTD
TAF AMD
KTTD 152109Z 1521/1618 20005KT P6SM SCT040 BKN070
     FM160100 21006KT P6SM FEW025 BKN045 OVC070
     FM160400 21004KT P6SM -RA SCT025 OVC040
     FM160800 19003KT 6SM -RA BKN025 OVC035=



000
FTUS46 KPQR 152108 AAA
TAFHIO
TAF AMD
KHIO 152108Z 1521/1618 20004KT P6SM SCT040 BKN070
     FM160000 19007KT P6SM FEW025 BKN045 OVC070
     FM160400 19003KT P6SM -RA SCT025 OVC045
     FM160700 20003KT 6SM -RA BKN025 OVC035=



000
FTUS46 KPQR 152107 AAA
TAFPDX
TAF AMD
KPDX 152107Z 1521/1618 23006KT P6SM SCT030 BKN070
     FM160000 23008KT P6SM FEW025 BKN045 OVC070
     FM160400 20006KT P6SM -RA SCT025 OVC040
     FM160700 20005KT 6SM -RA BKN025 OVC035=



000
FTUS46 KPQR 152025 AAA
TAFONP
TAF AMD
KONP 152025Z 1520/1618 29006KT P6SM SCT045 BKN100
     FM152300 24006KT P6SM SCT025 BKN040 OVC070
      TEMPO 1600/1603 -RA
     FM160300 21009KT 6SM -RA BKN030 OVC040
     FM160600 20007KT 3SM -RADZ BR BKN020 OVC030=



000
FTUS46 KPQR 151736
TAFONP
TAF
KONP 151736Z 1518/1618 VRB03KT P6SM SCT025 BKN045
     FM152200 25006KT P6SM BKN035 OVC045
      TEMPO 1522/1602 -RA
     FM160200 21009KT 6SM -RA BKN025 OVC035
     FM160600 20007KT 3SM -RADZ BR BKN015 OVC025=



000
FTUS46 KPQR 151736
TAFSLE
TAF
KSLE 151736Z 1518/1618 26006KT P6SM FEW030 BKN045
     FM152300 22007KT P6SM FEW025 BKN045 OVC070
     FM160200 19003KT P6SM -RA SCT025 OVC040
     FM160600 16004KT 6SM -RA BKN025 OVC035=



000
FTUS46 KPQR 151736
TAFAST
TAF
KAST 151736Z 1518/1618 26008KT P6SM SCT020 BKN035 OVC050
      TEMPO 1518/1522 -RA
     FM152200 23010KT 6SM -RA BKN025 OVC035
     FM160300 21006KT 3SM -RADZ BR BKN015 OVC025=



000
FTUS46 KPQR 151736
TAFEUG
TAF
KEUG 151736Z 1518/1618 30006KT P6SM FEW030 BKN045
     FM152300 22007KT P6SM FEW025 BKN045 OVC070
     FM160300 20003KT P6SM -RA SCT025 OVC040
     FM160700 19004KT 6SM -RA BKN025 OVC035=



000
FTUS46 KPQR 151736
TAFPDX
TAF
KPDX 151736Z 1518/1618 30006KT P6SM SCT030 OVC045
     FM152200 23008KT P6SM FEW025 BKN045 OVC070
     FM160100 21006KT P6SM -RA SCT025 OVC040
     FM160500 20005KT 6SM -RA BKN025 OVC035=



000
FTUS46 KPQR 151736
TAFHIO
TAF
KHIO 151736Z 1518/1618 24004KT P6SM SCT030 OVC040
     FM152200 20007KT P6SM FEW025 BKN040 OVC070
     FM160000 19003KT P6SM -RA SCT025 OVC040
     FM160400 20003KT 6SM -RA BKN025 OVC035=



000
FTUS46 KPQR 151736
TAFTTD
TAF
KTTD 151736Z 1518/1618 27005KT P6SM SCT030 OVC045
     FM152200 24006KT P6SM FEW025 BKN045 OVC070
     FM160100 21004KT P6SM -RA SCT025 OVC040
     FM160500 19003KT 6SM -RA BKN025 OVC035=



000
FTUS46 KPQR 151423 AAA
TAFONP
TAF AMD
KONP 151423Z 1514/1612 VRB03KT P6SM SCT025 BKN045
     FM151900 25008KT P6SM BKN035 OVC050
     FM160000 22010KT 6SM -RA SCT015 OVC025
     FM160900 20007KT 4SM -RA BR BKN015 OVC025=



000
FTUS46 KPQR 151408 AAA
TAFEUG
TAF AMD
KEUG 151408Z 1514/1612 22004KT P6SM FEW030 BKN045
     FM152100 26006KT P6SM FEW030 BKN045 OVC070
     FM160500 20006KT P6SM -RA SCT025 OVC045=



000
FTUS46 KPQR 151407 AAA
TAFSLE
TAF AMD
KSLE 151407Z 1514/1612 28005KT P6SM FEW030 BKN040
     FM160400 22006KT P6SM -RA BKN025 BKN040 OVC070
     FM160800 20007KT P6SM -RA SCT015 OVC035=



000
FTUS46 KPQR 151406 AAB
TAFPDX
TAF AMD
KPDX 151406Z 1514/1612 27006KT P6SM FEW030 BKN040
     FM152200 23008KT P6SM FEW025 BKN040 OVC070
     FM160300 20007KT P6SM -RA BKN025 OVC040
     FM160800 20007KT P6SM -RA SCT015 OVC025=



000
FTUS46 KPQR 151406 AAA
TAFHIO
TAF AMD
KHIO 151406Z 1514/1612 20006KT P6SM SCT025 BKN040
     FM152200 22005KT P6SM SCT025 BKN040 OVC070
     FM160200 20005KT P6SM -RA BKN025 OVC035
     FM160700 VRB03KT P6SM -RA SCT015 OVC025=



000
FTUS46 KPQR 151405 AAA
TAFTTD
TAF AMD
KTTD 151405Z 1514/1612 26005KT P6SM FEW030 BKN040
     FM152000 24005KT P6SM SCT020 BKN040 OVC070
     FM160400 24005KT P6SM -RA BKN025 OVC035
     FM160600 21007KT P6SM -RA OVC025=



000
FTUS46 KPQR 151348 AAA
TAFPDX
TAF AMD
KPDX 151348Z 1514/1612 26006KT P6SM FEW030 OVC040
     FM151900 24006KT P6SM SCT025 BKN040
     FM160300 25006KT P6SM -RA BKN025 OVC035
     FM160800 22007KT P6SM -RA SCT015 OVC025=



000
FTUS46 KPQR 151125
TAFONP
TAF
KONP 151125Z 1512/1612 VRB03KT P6SM BKN025 BKN035
     FM151800 26008KT P6SM BKN035 OVC050
     FM160000 24010KT 6SM -RA SCT015 OVC025
     FM160900 24007KT 4SM -RA BR BKN015 OVC025=



000
FTUS46 KPQR 151125
TAFPDX
TAF
KPDX 151125Z 1512/1612 27005KT P6SM BKN030 OVC045
     FM151900 24006KT P6SM SCT025 BKN040
     FM160300 25006KT P6SM -RA BKN025 OVC035
     FM160800 22007KT P6SM -RA SCT015 OVC025=



000
FTUS46 KPQR 151125
TAFAST
TAF
KAST 151125Z 1512/1612 29008KT P6SM BKN035 OVC050
     FM152200 24010KT 6SM -RA OVC025
     FM160300 23006KT 4SM -RA BR OVC015
     FM160800 23008KT P6SM -RA SCT015 OVC025=



000
FTUS46 KPQR 151125
TAFHIO
TAF
KHIO 151125Z 1512/1612 31006KT P6SM SCT025 BKN050
     FM151300 00000KT P6SM OVC035
     FM151900 25005KT P6SM SCT025 BKN040
     FM160200 25005KT P6SM -RA BKN025 OVC035
     FM160700 VRB03KT P6SM -RA SCT015 OVC025=



000
FTUS46 KPQR 151125
TAFSLE
TAF
KSLE 151125Z 1512/1612 00000KT P6SM BKN025 OVC035
     FM151800 22005KT P6SM SCT025 BKN040
     FM160400 24006KT P6SM -RA BKN025 BKN040
     FM160800 20007KT P6SM -RA SCT015 OVC035=



000
FTUS46 KPQR 151125
TAFEUG
TAF
KEUG 151125Z 1512/1612 00000KT P6SM BKN025 OVC035
     FM152100 34006KT P6SM SCT025 BKN040
     FM160500 27006KT P6SM -RA SCT025 BKN040
     FM160800 22007KT P6SM -RA SCT015 OVC035=



000
FTUS46 KPQR 151125
TAFTTD
TAF
KTTD 151125Z 1512/1612 31005KT P6SM BKN030 OVC045
     FM152000 24005KT P6SM SCT020 BKN040
     FM160400 24005KT P6SM -RA BKN025 OVC035
     FM160600 21007KT P6SM -RA OVC025=



000
FTUS46 KPQR 150850 AAA
TAFPDX
TAF AMD
KPDX 150850Z 1509/1606 30005KT P6SM SCT020 BKN045
     FM151100 27005KT P6SM BKN025 OVC035
     FM151900 24006KT P6SM SCT025 BKN040
     FM160300 25006KT P6SM -RA BKN025 OVC035=



000
FTUS46 KPQR 150850 AAA
TAFPDX
TAF AMD
KPDX 150850Z 1509/1606 30009KT P6SM SCT020 BKN045
     FM151100 27005KT P6SM BKN025 OVC035
     FM151900 24006KT P6SM SCT025 BKN040
     FM160300 25006KT P6SM -RA BKN025 OVC035=



000
FTUS46 KPQR 150521
TAFHIO
TAF
KHIO 150521Z 1506/1606 32010KT P6SM SCT030
     FM150700 31006KT P6SM SCT025 BKN050
     FM151100 00000KT P6SM OVC020
     FM151900 25005KT P6SM SCT025 BKN040
     FM160200 25005KT P6SM -RA BKN025 OVC035=



000
FTUS46 KPQR 150521
TAFONP
TAF
KONP 150521Z 1506/1606 34007KT P6SM BKN015 BKN030
     FM151200 VRB03KT 5SM BR BKN015 BKN030
     FM151800 26008KT P6SM BKN035
     FM160000 24010KT 6SM -RA OVC025=



000
FTUS46 KPQR 150521
TAFSLE
TAF
KSLE 150521Z 1506/1606 28006KT P6SM BKN250
     FM151000 27004KT P6SM SCT025
     FM151200 00000KT P6SM BKN025 OVC035
     FM151800 22005KT P6SM SCT025 BKN040
     FM160400 24006KT P6SM -RA BKN025 BKN040=



000
FTUS46 KPQR 150521
TAFEUG
TAF
KEUG 150521Z 1506/1606 28008KT P6SM SCT250
     FM150800 27005KT P6SM SCT025
     FM151000 00000KT P6SM BKN025 OVC035
     FM152100 34006KT P6SM SCT025 BKN040
     FM160500 27006KT P6SM SCT025 BKN040=



000
FTUS46 KPQR 150521
TAFPDX
TAF
KPDX 150521Z 1506/1606 30009KT P6SM SCT020 BKN030
     FM150900 27005KT P6SM BKN025 OVC035
     FM151900 24006KT P6SM SCT025 BKN040
     FM160300 25006KT P6SM -RA BKN025 OVC035=



000
FTUS46 KPQR 150521
TAFAST
TAF
KAST 150521Z 1506/1606 29009KT P6SM BKN025
     FM150900 28007KT 6SM -DZ BR BKN020
     FM151900 26008KT P6SM BKN035
     FM152200 24010KT 6SM -RA OVC025
     FM160300 23006KT 4SM -RA BR OVC015=



000
FTUS46 KPQR 150521
TAFTTD
TAF
KTTD 150521Z 1506/1606 31005KT P6SM SCT020 BKN030
     FM152000 24005KT P6SM SCT020 BKN040
     FM160400 24005KT P6SM BKN025 OVC035=



000
FTUS46 KPQR 150438 AAA
TAFHIO
TAF AMD
KHIO 150438Z 1505/1524 31012KT P6SM BKN250
     FM150600 32008KT P6SM SCT040 SCT200
     FM150900 31006KT P6SM SCT025
     FM151100 00000KT P6SM OVC020
     FM151900 25005KT P6SM SCT020 BKN040=



000
FTUS46 KPQR 150212 AAA
TAFEUG
TAF AMD
KEUG 150212Z 1502/1524 29010KT P6SM BKN250
     FM150600 27004KT P6SM SCT035
     FM150900 00000KT P6SM BKN025 OVC035
     FM152100 34006KT P6SM SCT025 BKN040=



000
FTUS46 KPQR 150211 AAA
TAFSLE
TAF AMD
KSLE 150211Z 1502/1524 29010KT P6SM BKN250
     FM150600 27006KT P6SM SCT035
     FM151000 00000KT P6SM BKN025 OVC035
     FM151800 22005KT P6SM SCT025 BKN040=



000
FTUS46 KPQR 150203 AAA
TAFPDX
TAF AMD
KPDX 150203Z 1502/1524 32015G22KT P6SM BKN250
     FM150400 30008KT P6SM SCT040 BKN250
     FM150800 24005KT P6SM BKN025 OVC035
     FM151900 29006KT P6SM SCT025 BKN040=



000
FTUS46 KPQR 142336
TAFTTD
TAF
KTTD 142336Z 1500/1524 30008KT P6SM BKN250
     FM150400 31007KT P6SM SCT035
     FM150800 29005KT P6SM OVC020
     FM152000 24005KT P6SM SCT020 BKN040=



000
FTUS46 KPQR 142336
TAFONP
TAF
KONP 142336Z 1500/1524 33012G18KT P6SM OVC025
     FM150300 34007KT 6SM -DZ BR BKN012 OVC030
     FM151200 30006KT P6SM BKN020 OVC035
     FM152000 29008KT P6SM BKN030 OVC040=



000
FTUS46 KPQR 142336
TAFSLE
TAF
KSLE 142336Z 1500/1524 31010KT P6SM BKN250
     FM150600 29006KT P6SM SCT035
     FM151000 00000KT P6SM BKN025 OVC035
     FM151800 22005KT P6SM SCT025 BKN040=



000
FTUS46 KPQR 142336
TAFPDX
TAF
KPDX 142336Z 1500/1524 31009KT P6SM BKN250
     FM150500 30007KT P6SM SCT025 SCT035
     FM150800 24005KT P6SM BKN025 OVC035
     FM151900 29006KT P6SM SCT025 BKN040=



000
FTUS46 KPQR 142336
TAFAST
TAF
KAST 142336Z 1500/1524 31014G20KT P6SM SCT022 BKN035
      TEMPO 1500/1503 BKN022
     FM150300 32010KT 6SM -DZ BR BKN020 OVC035
     FM151200 29005KT P6SM BKN025 OVC035
     FM152000 26010KT 6SM -RA BKN030 OVC040=



000
FTUS46 KPQR 142336
TAFEUG
TAF
KEUG 142336Z 1500/1524 32008KT P6SM BKN250
     FM150600 32004KT P6SM SCT035
     FM150900 00000KT P6SM BKN025 OVC035
     FM152100 34006KT P6SM SCT025 BKN040=



000
FTUS46 KPQR 142336
TAFHIO
TAF
KHIO 142336Z 1500/1524 30012KT P6SM BKN250
     FM150300 32008KT P6SM SCT040 SCT200
     FM150700 31006KT P6SM SCT025
     FM151000 00000KT P6SM OVC020
     FM151900 25005KT P6SM SCT020 BKN040=



000
FTUS46 KPQR 142121 AAB
TAFPDX
TAF AMD
KPDX 142121Z 1421/1518 33006KT P6SM FEW040 BKN200
     FM150000 32011KT P6SM SCT035
     FM150500 30007KT P6SM SCT025 SCT035
     FM150800 29005KT P6SM BKN025 OVC035=



000
FTUS46 KPQR 141944 AAA
TAFAST
TAF AMD
KAST 141944Z 1420/1518 31012KT P6SM SCT020
     FM142200 32012G18KT P6SM BKN020 OVC030
     FM150300 32009KT 6SM -DZ BR BKN020 OVC035
     FM151200 30003KT P6SM BKN025 OVC035=



000
FTUS46 KPQR 141943 AAA
TAFONP
TAF AMD
KONP 141943Z 1420/1518 32011KT P6SM BKN015 OVC025
     FM150200 32009KT 5SM -DZ BKN015 OVC030
     FM151200 30006KT P6SM BKN020 OVC035=



000
FTUS46 KPQR 141852 CCA
TAFPDX
TAF COR
KPDX 141852Z 1419/1518 25006KT P6SM FEW100 BKN200
     FM142200 32011KT P6SM SCT035
     FM150500 29007KT P6SM SCT025
     FM150800 29005KT P6SM BKN025 OVC035=



000
FTUS46 KPQR 141851 CCA
TAFHIO
TAF COR
KHIO 141851Z 1418/1518 30005KT P6SM SCT100 BKN250
     FM142300 30010KT P6SM SCT035
     FM150700 31006KT P6SM SCT025
     FM151000 00000KT P6SM OVC020=



000
FTUS46 KPQR 141851 AAA
TAFTTD
TAF AMD
KTTD 141851Z 1419/1518 09010KT P6SM BKN250
     FM142100 29010KT P6SM SCT040 BKN250
     FM150300 31007KT P6SM SCT035
     FM150800 29005KT P6SM OVC020=



000
FTUS46 KPQR 141850 AAA
TAFPDX
TAF AMD
KPDX 141850Z 1419/1518 25006KT P6SM FEW100 BKN200
     FM150000 32011KT P6SM SCT035
     FM150500 29007KT P6SM SCT025
     FM150800 29005KT P6SM BKN025 OVC035=



000
FTUS46 KPQR 141737
TAFPDX
TAF
KPDX 141737Z 1418/1518 25006KT P6SM BKN100 BKN200
     FM150000 32011KT P6SM SCT100
     FM150600 29007KT P6SM SCT020
     FM150800 29005KT P6SM BKN020 OVC035=



000
FTUS46 KPQR 141737
TAFEUG
TAF
KEUG 141737Z 1418/1518 19005KT P6SM SCT120 BKN200
     FM150000 26010KT P6SM SCT100
     FM150600 32004KT P6SM SCT035
     FM150900 00000KT P6SM BKN025 OVC035=



000
FTUS46 KPQR 141737
TAFTTD
TAF
KTTD 141737Z 1418/1518 09010KT P6SM SCT120
     FM142100 29010KT P6SM BKN100 BKN250
     FM150300 31007KT P6SM SCT100
     FM150800 29005KT P6SM OVC020=



000
FTUS46 KPQR 141737
TAFHIO
TAF
KHIO 141737Z 1418/1518 30006KT P6SM BKN100 BKN200
     FM150000 30010KT P6SM SCT100
     FM150700 31006KT P6SM SCT020
     FM151000 00000KT P6SM OVC020=



000
FTUS46 KPQR 141737
TAFONP
TAF
KONP 141737Z 1418/1518 31010KT P6SM FEW035 BKN100
     FM142200 32011G19KT P6SM BKN035 OVC100
     FM150300 32007KT 5SM -DZ BKN020 OVC035
     FM151200 29006KT P6SM BKN020 OVC035=



000
FTUS46 KPQR 141737
TAFSLE
TAF
KSLE 141737Z 1418/1518 20005KT P6SM SCT120 BKN200
     FM150000 30010KT P6SM SCT100
     FM150600 29006KT P6SM SCT035
     FM151000 00000KT P6SM BKN025 OVC035=



000
FTUS46 KPQR 141737
TAFAST
TAF
KAST 141737Z 1418/1518 30011KT P6SM SCT035 BKN100
     FM142100 32011G18KT P6SM BKN035 OVC100
     FM150300 32008KT 6SM -DZ BR BKN020 OVC035
     FM151200 30003KT P6SM BKN025 OVC035=



000
FTUS46 KPQR 141444 AAB
TAFTTD
TAF AMD
KTTD 141444Z 1415/1512 08012G23KT P6SM SCT120
     FM142100 29010KT P6SM BKN100 BKN250
     FM150300 31007KT P6SM SCT100
     FM150900 29005KT P6SM OVC020=



000
FTUS46 KPQR 141443 AAA
TAFPDX
TAF AMD
KPDX 141443Z 1415/1512 VRB04KT P6SM FEW120
     FM141900 22007KT P6SM BKN100 BKN250
     FM150000 30010KT P6SM SCT100 BKN250
     FM150700 29007KT P6SM SCT020
     FM150900 29005KT P6SM OVC020=



000
FTUS46 KPQR 141131 AAA
TAFTTD
TAF AMD
KTTD 141131Z 1412/1512 08012G20KT P6SM SKC
     FM142100 28010KT P6SM SCT150
     FM150600 30006KT P6SM SCT040 BKN100=



000
FTUS46 KPQR 141120
TAFAST
TAF
KAST 141120Z 1412/1512 09004KT P6SM SKC
     FM141500 26008KT P6SM BKN050
     FM142100 30014KT P6SM SCT015 OVC020
     FM150400 31007KT 6SM -DZ BR OVC025=



000
FTUS46 KPQR 141120
TAFSLE
TAF
KSLE 141120Z 1412/1512 VRB03KT P6SM SKC
     FM142100 24010KT P6SM SCT150
     FM150800 30008KT P6SM SCT040 BKN100=



000
FTUS46 KPQR 141120
TAFHIO
TAF
KHIO 141120Z 1412/1512 30005KT P6SM SKC
     FM142100 28011KT P6SM SCT150
     FM150400 26006KT P6SM SCT040 BKN100=



000
FTUS46 KPQR 141120
TAFPDX
TAF
KPDX 141120Z 1412/1512 VRB04KT P6SM SKC
     FM142100 28012KT P6SM SCT150
     FM150400 28008KT P6SM SCT040 BKN100=



000
FTUS46 KPQR 141120
TAFTTD
TAF
KTTD 141120Z 1412/1512 08012KT P6SM SKC
     FM142100 28010KT P6SM SCT150
     FM150600 30006KT P6SM SCT040 BKN100=



000
FTUS46 KPQR 141120
TAFONP
TAF
KONP 141120Z 1412/1512 08007KT P6SM SKC
     FM141900 29012G20KT P6SM OVC015
     FM150600 32005KT P6SM -DZ OVC025=



000
FTUS46 KPQR 141120
TAFEUG
TAF
KEUG 141120Z 1412/1512 VRB03KT P6SM SKC
     FM142100 26008KT P6SM SCT150
     FM150800 30005KT P6SM SCT040 BKN100=



000
FTUS46 KPQR 140851 AAA
TAFPDX
TAF AMD
KPDX 140851Z 1409/1506 VRB04KT P6SM SKC
     FM142100 28011KT P6SM SCT150
     FM150400 28008KT P6SM SCT040=



000
FTUS46 KPQR 140520
TAFONP
TAF
KONP 140520Z 1406/1506 06007KT P6SM SKC
     FM141600 27004KT 4SM BR BKN005
     FM141900 29010KT 4SM BR OVC011=



000
FTUS46 KPQR 140520
TAFTTD
TAF
KTTD 140520Z 1406/1506 08008KT P6SM SKC
     FM141500 VRB03KT P6SM SKC
     FM142100 28005KT P6SM SCT150
     FM150400 30007KT P6SM SCT040=



000
FTUS46 KPQR 140520
TAFSLE
TAF
KSLE 140520Z 1406/1506 34008KT P6SM SKC
     FM141000 VRB03KT P6SM SKC
     FM142100 24007KT P6SM SCT150=



000
FTUS46 KPQR 140520
TAFEUG
TAF
KEUG 140520Z 1406/1506 35008KT P6SM SKC
     FM141100 VRB03KT P6SM SKC
     FM142100 26008KT P6SM SCT150=



000
FTUS46 KPQR 140520
TAFPDX
TAF
KPDX 140520Z 1406/1506 08012KT P6SM SKC
     FM140800 07006KT P6SM SKC
     FM142100 28011KT P6SM SCT150
     FM150400 28008KT P6SM SCT040=



000
FTUS46 KPQR 140520
TAFAST
TAF
KAST 140520Z 1406/1506 09004KT P6SM SKC
     FM141700 29008KT 4SM BR SCT005
     FM142100 30010KT P6SM SCT008 OVC015
     FM150040 31007KT 6SM -DZ BR OVC012=



000
FTUS46 KPQR 140520
TAFHIO
TAF
KHIO 140520Z 1406/1506 06004KT P6SM SKC
     FM142100 28009KT P6SM SCT150
     FM150400 26006KT P6SM SCT040=



000
FTUS46 KPQR 140309 AAA
TAFPDX
TAF AMD
KPDX 140309Z 1403/1424 08012KT P6SM SKC
     FM140800 07006KT P6SM SKC
     FM142100 28008KT P6SM SCT150=



000
FTUS46 KPQR 140115 AAA
TAFSLE
TAF AMD
KSLE 140115Z 1401/1424 36012G22KT P6SM SKC
     FM140300 36010KT P6SM SKC
     FM140700 VRB03KT P6SM SKC
     FM142100 24007KT P6SM SCT150=



000
FTUS46 KPQR 132340
TAFTTD
TAF
KTTD 132340Z 1400/1424 08014G24KT P6SM SKC
     FM140300 09014KT P6SM SKC
     FM141500 VRB03KT P6SM SKC
     FM142100 28005KT P6SM SCT150=



000
FTUS46 KPQR 132340
TAFHIO
TAF
KHIO 132340Z 1400/1424 04010G20KT P6SM SKC
     FM140200 06004KT P6SM SKC
     FM142100 28006KT P6SM SCT150=



000
FTUS46 KPQR 132340
TAFONP
TAF
KONP 132340Z 1400/1424 04010KT P6SM SKC
     FM140300 04004KT P6SM SKC
     FM141600 27008KT 4SM BR SCT003
     FM141900 29010KT P6SM OVC015=



000
FTUS46 KPQR 132340
TAFAST
TAF
KAST 132340Z 1400/1424 36010KT P6SM SKC
     FM140400 09004KT P6SM SKC
     FM141700 29008KT P6SM SKC
     FM142100 30010KT P6SM OVC015=



000
FTUS46 KPQR 132340
TAFSLE
TAF
KSLE 132340Z 1400/1424 36010KT P6SM SKC
     FM140700 VRB03KT P6SM SKC
     FM142100 24007KT P6SM SCT150=



000
FTUS46 KPQR 132340
TAFEUG
TAF
KEUG 132340Z 1400/1424 02012KT P6SM SKC
     FM140700 VRB03KT P6SM SKC
     FM142100 26008KT P6SM SCT150=



000
FTUS46 KPQR 132340
TAFPDX
TAF
KPDX 132340Z 1400/1424 07012KT P6SM SKC
     FM140400 07006KT P6SM SKC
     FM142100 28008KT P6SM SCT150=



000
FTUS46 KPQR 132051 AAA
TAFPDX
TAF AMD
KPDX 132051Z 1321/1418 08012KT P6SM SKC
     FM140400 07006KT P6SM SKC=



000
FTUS46 KPQR 131720
TAFEUG
TAF
KEUG 131720Z 1318/1418 02012KT P6SM SKC
     FM140700 VRB03KT P6SM SKC=



000
FTUS46 KPQR 131720
TAFAST
TAF
KAST 131720Z 1318/1418 05007KT P6SM SKC
     FM132300 36008KT P6SM SKC
     FM140400 09004KT P6SM SKC
     FM141700 29008KT P6SM SKC=



000
FTUS46 KPQR 131720
TAFPDX
TAF
KPDX 131720Z 1318/1418 VRB04KT P6SM SKC
     FM131900 08012KT P6SM SKC
     FM140400 07006KT P6SM SKC=



000
FTUS46 KPQR 131720
TAFONP
TAF
KONP 131720Z 1318/1418 08008KT P6SM SKC
     FM132300 36014G24KT P6SM SKC
     FM140300 04004KT P6SM SKC
     FM141600 27008KT 4SM BR SCT003=



000
FTUS46 KPQR 131720
TAFHIO
TAF
KHIO 131720Z 1318/1418 07009KT P6SM SKC
     FM140400 06004KT P6SM SKC=



000
FTUS46 KPQR 131720
TAFTTD
TAF
KTTD 131720Z 1318/1418 08012KT P6SM SKC
     FM140500 09018KT P6SM SKC=



000
FTUS46 KPQR 131720
TAFSLE
TAF
KSLE 131720Z 1318/1418 36010KT P6SM SKC
     FM140700 VRB03KT P6SM SKC=



000
FTUS46 KPQR 131507 AAA
TAFPDX
TAF AMD
KPDX 131507Z 1315/1412 VRB04KT P6SM SKC
     FM131800 09012G18KT P6SM SKC
     FM140400 06006KT P6SM SKC=



000
FTUS46 KPQR 131304 AAA
TAFAST
TAF AMD
KAST 131304Z 1313/1412 VRB02KT P6SM FEW003
      TEMPO 1313/1315 4SM BR
     FM131600 06006KT P6SM SKC
     FM132100 36010KT P6SM SKC=



000
FTUS46 KPQR 131124
TAFONP
TAF
KONP 131124Z 1312/1412 07005KT P6SM SKC
      TEMPO 1312/1314 6SM BR SCT003
     FM132100 35013G20KT P6SM SKC=



000
FTUS46 KPQR 131124
TAFEUG
TAF
KEUG 131124Z 1312/1412 VRB04KT P6SM SKC
     FM132000 02012KT P6SM SKC
     FM140600 36005KT P6SM SKC=



000
FTUS46 KPQR 131124
TAFPDX
TAF
KPDX 131124Z 1312/1412 VRB04KT P6SM SKC
     FM131800 09012G18KT P6SM SKC
     FM140400 06006KT P6SM SKC=



000
FTUS46 KPQR 131124
TAFHIO
TAF
KHIO 131124Z 1312/1412 VRB03KT P6SM SKC
     FM131800 08011KT P6SM SKC
     FM140400 06005KT P6SM SKC=



000
FTUS46 KPQR 131124
TAFSLE
TAF
KSLE 131124Z 1312/1412 01005KT P6SM SKC
     FM132000 03012KT P6SM SKC
     FM140600 06006KT P6SM SKC=



000
FTUS46 KPQR 131124
TAFAST
TAF
KAST 131124Z 1312/1412 VRB02KT P6SM FEW003
      TEMPO 1312/1314 4SM BR BKN003
     FM131600 06006KT P6SM SKC
     FM132100 36010KT P6SM SKC=



000
FTUS46 KPQR 131124
TAFTTD
TAF
KTTD 131124Z 1312/1412 08005KT P6SM SKC
     FM131800 08015KT P6SM SKC
     FM140400 08008KT P6SM SKC=



000
FTUS46 KPQR 130853 AAA
TAFPDX
TAF AMD
KPDX 130853Z 1309/1406 VRB04KT P6SM SKC
     FM131800 09011KT P6SM FEW100
     FM132200 09012G18KT P6SM SKC=



000
FTUS46 KPQR 130529
TAFPDX
TAF
KPDX 130529Z 1306/1406 33010KT P6SM FEW050
     FM130900 VRB04KT P6SM SKC
     FM131800 06009KT P6SM FEW100=



000
FTUS46 KPQR 130529
TAFEUG
TAF
KEUG 130529Z 1306/1406 35006KT P6SM FEW050
     FM131200 02004KT P6SM SKC
     FM132000 02010KT P6SM SKC=



000
FTUS46 KPQR 130529
TAFHIO
TAF
KHIO 130529Z 1306/1406 33006KT P6SM FEW030
     FM130900 VRB03KT P6SM SKC
     FM131800 08006KT P6SM SKC=



000
FTUS46 KPQR 130529
TAFAST
TAF
KAST 130529Z 1306/1406 33010KT P6SM FEW040
     FM130800 06004KT P6SM SKC
     FM131800 35010KT P6SM SKC=



000
FTUS46 KPQR 130529
TAFSLE
TAF
KSLE 130529Z 1306/1406 35011KT P6SM FEW035
     FM131200 01005KT P6SM SKC=



000
FTUS46 KPQR 130529
TAFTTD
TAF
KTTD 130529Z 1306/1406 VRB04KT P6SM SKC
     FM131000 08005KT P6SM SKC=



000
FTUS46 KPQR 130529
TAFONP
TAF
KONP 130529Z 1306/1406 01008KT P6SM SKC
     FM130800 07005KT P6SM SKC
     FM132100 35013KT P6SM SKC=



    US Dept of Commerce
    National Oceanic and Atmospheric Administration
    National Weather Service
    1325 East West Highway
    Silver Spring, MD 20910
    Page Author: NWS Internet Services Team
Disclaimer
Information Quality
Credits
Glossary
Privacy Policy
Freedom of Information Act (FOIA)
About Us
Career Opportunities